Time;durP1;ratioP1;P1;durP2;ratioP2;P2;SDS_P1;SDS_P2;PMS_P1;PMS_P2;Temp;Humidity;BMP_temperature;BMP_pressure;BME280_temperature;BME280_humidity;BME280_pressure;Samples;Min_cycle;Max_cycle;Signal;HPM_P1;HPM_P2
2022/11/01 00:01:53;;;;;;;9.50;8.70;;;14.50;58.20;;;;;;4989889;28;20454;-82
2022/11/01 00:04:22;;;;;;;9.43;8.50;;;14.60;1.00;;;;;;4994343;28;20548;-83
2022/11/01 00:06:50;;;;;;;9.10;8.20;;;14.40;99.90;;;;;;4989286;28;20466;-84
2022/11/01 00:09:20;;;;;;;9.20;8.50;;;14.50;1.00;;;;;;4990964;28;20572;-84
2022/11/01 00:11:48;;;;;;;8.50;7.70;;;14.60;1.00;;;;;;4994345;28;20457;-83
2022/11/01 00:14:19;;;;;;;9.40;8.60;;;14.50;1.00;;;;;;4991754;28;20456;-83
2022/11/01 00:16:47;;;;;;;9.20;8.40;;;14.70;51.00;;;;;;4998621;28;20454;-83
2022/11/01 00:19:15;;;;;;;8.60;7.90;;;14.80;1.00;;;;;;4998311;28;20502;-83
2022/11/01 00:21:43;;;;;;;8.87;8.23;;;14.80;1.00;;;;;;5009579;28;20461;-84
2022/11/01 00:24:12;;;;;;;9.00;8.20;;;14.80;1.00;;;;;;4992326;28;20973;-84
2022/11/01 00:26:41;;;;;;;8.57;7.90;;;14.90;1.00;;;;;;4992175;28;20958;-84
2022/11/01 00:29:11;;;;;;;7.80;7.27;;;15.00;1.00;;;;;;4991721;28;20473;-83
2022/11/01 00:31:40;;;;;;;7.80;7.30;;;15.10;99.90;;;;;;4989845;28;20544;-83
2022/11/01 00:34:08;;;;;;;9.00;8.30;;;15.20;99.90;;;;;;4999303;28;20541;-84
2022/11/01 00:36:36;;;;;;;7.80;7.10;;;15.30;99.90;;;;;;5000861;28;20547;-83
2022/11/01 00:39:05;;;;;;;7.43;6.73;;;15.40;99.90;;;;;;4998764;28;20897;-83
2022/11/01 00:41:34;;;;;;;8.57;7.60;;;15.40;99.90;;;;;;5001102;28;20462;-84
2022/11/01 00:44:04;;;;;;;9.50;8.30;;;15.50;99.90;;;;;;5000785;28;20481;-82
2022/11/01 00:46:33;;;;;;;8.97;8.10;;;15.50;55.90;;;;;;4998296;28;20582;-83
2022/11/01 00:49:01;;;;;;;10.57;7.53;;;15.50;38.40;;;;;;4991905;28;20490;-82
2022/11/01 00:51:29;;;;;;;8.90;8.13;;;15.70;6.10;;;;;;4993183;28;20460;-83
2022/11/01 00:53:57;;;;;;;8.13;7.50;;;15.70;1.00;;;;;;4990347;28;20542;-82
2022/11/01 00:56:25;;;;;;;8.13;7.43;;;15.80;1.00;;;;;;4992795;28;20582;-84
2022/11/01 00:58:53;;;;;;;7.97;7.30;;;15.80;1.00;;;;;;4996358;28;20529;-82
2022/11/01 01:01:22;;;;;;;8.27;7.67;;;15.70;1.00;;;;;;4991138;28;20496;-82
2022/11/01 01:03:51;;;;;;;8.53;7.73;;;15.80;1.00;;;;;;4990682;28;20472;-83
2022/11/01 01:06:19;;;;;;;8.93;8.00;;;15.90;1.00;;;;;;4995608;28;20576;-83
2022/11/01 01:08:47;;;;;;;8.20;7.50;;;15.80;1.00;;;;;;4992251;28;20598;-83
2022/11/01 01:11:15;;;;;;;8.57;7.77;;;15.80;1.00;;;;;;4991793;28;20538;-83
2022/11/01 01:13:43;;;;;;;9.30;8.43;;;15.80;1.00;;;;;;4994513;28;20548;-82
2022/11/01 01:16:13;;;;;;;8.80;8.00;;;15.80;1.00;;;;;;4989649;28;20491;-83
2022/11/01 01:18:42;;;;;;;9.47;7.40;;;15.60;1.00;;;;;;4989724;28;20506;-83
2022/11/01 01:21:12;;;;;;;8.37;7.50;;;15.60;1.00;;;;;;4989233;28;20458;-82
2022/11/01 01:23:42;;;;;;;9.03;7.90;;;15.60;1.00;;;;;;4991152;28;20450;-83
2022/11/01 01:26:11;;;;;;;8.60;7.13;;;15.70;1.00;;;;;;4989665;28;20521;-85
2022/11/01 01:28:39;;;;;;;9.50;7.90;;;15.70;1.00;;;;;;4986208;28;20489;-84
2022/11/01 01:31:12;;;;;;;9.23;8.23;;;15.50;1.00;;;;;;4990694;28;21042;-84
2022/11/01 01:33:42;;;;;;;7.87;7.23;;;15.40;1.00;;;;;;4990833;28;20498;-85
2022/11/01 01:36:11;;;;;;;8.27;7.47;;;15.50;1.00;;;;;;4991023;28;21948;-83
2022/11/01 01:38:39;;;;;;;8.47;7.77;;;15.40;1.00;;;;;;4987165;28;20989;-83
2022/11/01 01:43:53;;;;;;;9.80;8.93;;;15.20;1.00;;;;;;4989890;28;20509;-83
2022/11/01 01:46:21;;;;;;;8.10;7.40;;;15.20;9.80;;;;;;4987911;28;20455;-83
2022/11/01 01:48:55;;;;;;;8.63;7.97;;;15.10;46.10;;;;;;4989716;28;20561;-83
2022/11/01 01:51:26;;;;;;;8.33;7.73;;;15.00;82.10;;;;;;4992040;28;20485;-84
2022/11/01 01:53:57;;;;;;;7.77;7.07;;;14.80;99.90;;;;;;4996896;28;20944;-82
2022/11/01 01:56:31;;;;;;;10.60;7.50;;;15.00;99.90;;;;;;4995186;28;20585;-82
2022/11/01 01:59:02;;;;;;;8.53;7.63;;;14.80;99.90;;;;;;4995858;28;20489;-83
2022/11/01 02:01:32;;;;;;;8.40;7.90;;;14.90;99.90;;;;;;4989214;28;21054;-83
2022/11/01 02:04:03;;;;;;;8.67;7.60;;;14.90;99.90;;;;;;4992316;28;20485;-83
2022/11/01 02:06:33;;;;;;;8.47;7.77;;;15.00;99.90;;;;;;4986738;28;20480;-84
2022/11/01 02:09:04;;;;;;;7.90;7.40;;;15.00;99.90;;;;;;4985103;28;20631;-82
2022/11/01 02:11:32;;;;;;;8.20;7.67;;;14.90;99.90;;;;;;4996677;28;20529;-82
2022/11/01 02:14:01;;;;;;;10.47;8.27;;;14.90;99.90;;;;;;4988241;28;20975;-84
2022/11/01 02:16:52;;;;;;;9.73;8.70;;;14.90;99.90;;;;;;4985992;28;20901;-83
2022/11/01 02:19:51;;;;;;;8.23;7.53;;;15.10;99.90;;;;;;4991495;28;20500;-83
2022/11/01 02:22:31;;;;;;;9.50;8.70;;;14.90;99.90;;;;;;4992101;28;20474;-82
2022/11/01 02:25:10;;;;;;;8.87;8.17;;;15.00;99.90;;;;;;4991927;28;20486;-82
2022/11/01 02:28:01;;;;;;;9.57;8.87;;;15.00;99.90;;;;;;4992997;28;20477;-83
2022/11/01 02:30:36;;;;;;;18.90;9.40;;;14.90;99.90;;;;;;4996910;28;20472;-83
2022/11/01 02:33:15;;;;;;;7.80;7.30;;;15.20;99.90;;;;;;5001144;28;20996;-81
2022/11/01 02:35:52;;;;;;;9.77;8.97;;;15.20;99.90;;;;;;5001086;28;20458;-81
2022/11/01 02:38:26;;;;;;;8.70;8.07;;;14.90;99.90;;;;;;4999310;28;20491;-83
2022/11/01 02:41:02;;;;;;;9.10;8.40;;;14.90;99.90;;;;;;4997037;28;20540;-83
2022/11/01 02:43:40;;;;;;;11.20;8.37;;;14.80;99.90;;;;;;4999197;28;20460;-83
2022/11/01 02:49:03;;;;;;;8.00;7.50;;;15.40;57.40;;;;;;4988626;28;20523;-83
2022/11/01 02:51:33;;;;;;;9.10;8.20;;;15.60;1.00;;;;;;5000396;28;20467;-82
2022/11/01 02:54:05;;;;;;;8.50;7.80;;;15.50;1.00;;;;;;4997273;28;20453;-83
2022/11/01 02:56:33;;;;;;;8.07;7.47;;;15.50;1.00;;;;;;4998959;28;20475;-83
2022/11/01 02:59:02;;;;;;;8.00;7.40;;;15.30;1.00;;;;;;5000785;28;20481;-83
2022/11/01 03:01:33;;;;;;;7.93;7.13;;;15.40;1.00;;;;;;5008558;28;20476;-82
2022/11/01 03:04:03;;;;;;;9.10;7.63;;;15.60;1.00;;;;;;4996843;28;20509;-83
2022/11/01 03:06:37;;;;;;;8.77;7.33;;;15.50;1.00;;;;;;4994069;28;20543;-84
2022/11/01 03:09:11;;;;;;;7.83;7.23;;;15.80;1.00;;;;;;4996245;28;20843;-84
2022/11/01 03:11:48;;;;;;;7.53;6.50;;;15.80;1.00;;;;;;4995427;28;20896;-83
2022/11/01 03:14:24;;;;;;;9.00;7.13;;;15.90;1.00;;;;;;4990032;28;20445;-83
2022/11/01 03:16:59;;;;;;;7.60;6.90;;;16.00;1.00;;;;;;4990596;28;20554;-83
2022/11/01 03:19:39;;;;;;;7.67;7.10;;;15.80;1.00;;;;;;4991395;28;20597;-83
2022/11/01 03:22:11;;;;;;;7.23;6.67;;;16.00;1.00;;;;;;4992474;28;20470;-84
2022/11/01 03:24:45;;;;;;;8.43;6.10;;;16.10;1.00;;;;;;4993171;28;20456;-84
2022/11/01 03:27:18;;;;;;;8.60;6.80;;;16.00;1.00;;;;;;5007123;28;20847;-84
2022/11/01 03:29:55;;;;;;;6.40;6.03;;;16.10;1.00;;;;;;4993735;28;20458;-84
2022/11/01 03:32:30;;;;;;;6.33;5.90;;;16.10;1.00;;;;;;4993221;28;20979;-84
2022/11/01 03:35:02;;;;;;;8.43;7.20;;;16.30;1.00;;;;;;4995272;28;20445;-83
2022/11/01 03:37:32;;;;;;;6.93;6.07;;;16.30;1.00;;;;;;4993504;28;20486;-83
2022/11/01 03:40:04;;;;;;;6.30;5.77;;;16.30;1.00;;;;;;4992266;28;20554;-84
2022/11/01 03:42:33;;;;;;;7.20;6.60;;;16.40;1.00;;;;;;4991466;28;20444;-84
2022/11/01 03:45:08;;;;;;;6.93;6.43;;;16.40;1.00;;;;;;4996051;28;21476;-83
2022/11/01 03:47:37;;;;;;;7.50;6.87;;;16.40;1.00;;;;;;4991397;28;20514;-83
2022/11/01 03:50:15;;;;;;;7.00;6.50;;;16.40;1.00;;;;;;4994717;28;20514;-84
2022/11/01 03:52:43;;;;;;;9.63;6.57;;;16.50;1.00;;;;;;4996101;28;20490;-84
2022/11/01 03:55:18;;;;;;;8.50;6.20;;;16.50;1.00;;;;;;4997060;28;20535;-84
2022/11/01 03:57:47;;;;;;;10.33;6.10;;;16.60;1.00;;;;;;4994267;28;20998;-84
2022/11/01 04:00:17;;;;;;;6.83;6.23;;;16.60;1.00;;;;;;4990248;28;20461;-84
2022/11/01 04:02:45;;;;;;;6.40;5.93;;;16.60;1.00;;;;;;4990607;28;20471;-84
2022/11/01 04:05:15;;;;;;;10.63;6.77;;;16.60;1.00;;;;;;4988915;28;20463;-84
2022/11/01 04:07:44;;;;;;;8.00;6.10;;;16.70;1.00;;;;;;5004363;28;20472;-85
2022/11/01 04:10:13;;;;;;;10.70;6.50;;;16.70;1.00;;;;;;4991040;28;20464;-85
2022/11/01 04:12:45;;;;;;;7.37;6.70;;;16.60;1.00;;;;;;4993917;28;20476;-85
2022/11/01 04:20:54;;;;;;;7.33;6.27;;;16.60;1.00;;;;;;5003419;28;20591;-83
2022/11/01 04:23:22;;;;;;;7.97;7.10;;;16.60;1.00;;;;;;4992273;28;20969;-83
2022/11/01 04:25:50;;;;;;;6.60;6.03;;;16.60;1.00;;;;;;4996288;28;20455;-82
2022/11/01 04:28:18;;;;;;;6.47;5.70;;;16.50;1.00;;;;;;4989520;28;21002;-83
2022/11/01 04:30:46;;;;;;;7.70;6.30;;;16.50;1.00;;;;;;4990139;28;20472;-83
2022/11/01 04:33:15;;;;;;;7.90;6.63;;;16.50;1.00;;;;;;4994268;28;20889;-81
2022/11/01 04:35:43;;;;;;;9.50;6.10;;;16.50;1.00;;;;;;4987399;28;20558;-80
2022/11/01 04:38:13;;;;;;;6.17;5.60;;;16.60;1.00;;;;;;4986522;28;20483;-81
2022/11/01 04:40:42;;;;;;;6.37;5.87;;;16.60;1.00;;;;;;4988499;28;20674;-81
2022/11/01 04:43:11;;;;;;;6.80;6.13;;;16.60;1.00;;;;;;4987401;28;21247;-82
2022/11/01 04:45:39;;;;;;;6.40;5.90;;;16.50;1.00;;;;;;4994534;28;20535;-83
2022/11/01 04:48:11;;;;;;;6.33;5.93;;;16.50;1.00;;;;;;4989197;28;20532;-82
2022/11/01 04:50:40;;;;;;;6.30;5.90;;;16.50;1.00;;;;;;4984914;28;20488;-82
2022/11/01 04:53:08;;;;;;;6.43;5.93;;;16.60;1.00;;;;;;4988795;28;20564;-82
2022/11/01 04:55:38;;;;;;;6.30;5.80;;;16.60;1.00;;;;;;4992089;28;20463;-82
2022/11/01 04:58:07;;;;;;;5.70;5.40;;;16.60;1.00;;;;;;4990524;28;20502;-82
2022/11/01 05:00:35;;;;;;;5.47;5.27;;;16.60;1.00;;;;;;4989724;28;20440;-83
2022/11/01 05:03:05;;;;;;;6.47;5.77;;;16.50;1.00;;;;;;4987373;28;20456;-83
2022/11/01 05:05:34;;;;;;;5.63;5.30;;;16.60;1.00;;;;;;4993827;28;20455;-83
2022/11/01 05:08:03;;;;;;;5.83;5.30;;;16.60;1.00;;;;;;4998345;28;20526;-84
2022/11/01 05:10:31;;;;;;;5.60;5.20;;;16.60;1.00;;;;;;4998995;28;20905;-84
2022/11/01 05:13:01;;;;;;;5.77;5.37;;;16.60;1.00;;;;;;4997525;28;20502;-83
2022/11/01 05:15:30;;;;;;;5.60;5.40;;;16.60;1.00;;;;;;4998002;28;20484;-83
2022/11/01 05:17:58;;;;;;;5.83;5.53;;;16.70;1.00;;;;;;4998391;28;20554;-83
2022/11/01 05:20:27;;;;;;;6.03;5.73;;;16.60;1.00;;;;;;4989296;28;20472;-82
2022/11/01 05:22:59;;;;;;;5.77;5.43;;;16.70;1.00;;;;;;4993376;28;20842;-83
2022/11/01 05:25:28;;;;;;;5.93;5.53;;;16.60;1.00;;;;;;4987417;28;20486;-84
2022/11/01 05:28:04;;;;;;;5.90;5.60;;;16.60;1.00;;;;;;4993682;28;20496;-84
2022/11/01 05:30:33;;;;;;;6.17;5.87;;;16.60;1.00;;;;;;4990812;28;20499;-84
2022/11/01 05:33:04;;;;;;;6.17;5.97;;;16.50;99.90;;;;;;4992849;28;20513;-84
2022/11/01 05:35:34;;;;;;;6.27;6.07;;;16.50;99.90;;;;;;5006142;28;20460;-83
2022/11/01 05:38:03;;;;;;;6.83;6.63;;;16.50;1.00;;;;;;5009341;28;20579;-84
2022/11/01 05:40:32;;;;;;;7.97;7.37;;;16.50;26.10;;;;;;4987157;28;20516;-84
2022/11/01 05:43:02;;;;;;;7.10;6.80;;;16.40;99.90;;;;;;4993759;28;20460;-84
2022/11/01 05:45:31;;;;;;;7.20;7.00;;;16.40;99.90;;;;;;4991843;28;20574;-85
2022/11/01 05:48:02;;;;;;;7.20;6.90;;;16.40;99.90;;;;;;4992221;28;20478;-84
2022/11/01 05:50:31;;;;;;;7.23;6.93;;;16.30;1.00;;;;;;4997031;28;20465;-85
2022/11/01 05:53:05;;;;;;;7.57;7.37;;;16.30;1.00;;;;;;4991787;28;20975;-84
2022/11/01 05:55:34;;;;;;;7.90;7.60;;;16.30;4.30;;;;;;4992438;28;20975;-85
2022/11/01 05:58:04;;;;;;;7.17;6.97;;;16.30;1.00;;;;;;4993886;28;21052;-84
2022/11/01 06:00:34;;;;;;;8.23;7.93;;;16.30;1.00;;;;;;4987184;28;20551;-84
2022/11/01 06:03:02;;;;;;;7.70;7.50;;;16.10;99.90;;;;;;4990594;28;20459;-84
2022/11/01 06:05:32;;;;;;;7.77;7.57;;;16.20;99.90;;;;;;4993533;28;20825;-84
2022/11/01 06:08:01;;;;;;;8.47;8.27;;;16.20;99.90;;;;;;4997135;28;20478;-84
2022/11/01 06:10:29;;;;;;;8.20;8.00;;;16.20;1.00;;;;;;4992303;28;20468;-84
2022/11/01 06:12:58;;;;;;;8.10;7.90;;;16.20;1.00;;;;;;4993887;28;20461;-83
2022/11/01 06:15:28;;;;;;;8.37;7.97;;;16.20;99.90;;;;;;4988523;28;20456;-83
2022/11/01 06:17:57;;;;;;;8.03;7.83;;;16.20;99.90;;;;;;4986560;28;20486;-84
2022/11/01 06:20:25;;;;;;;7.60;7.40;;;16.10;99.90;;;;;;4989270;28;20448;-84
2022/11/01 06:22:53;;;;;;;8.20;8.00;;;16.00;1.00;;;;;;4987956;28;20455;-84
2022/11/01 06:25:21;;;;;;;8.20;8.00;;;16.10;1.00;;;;;;4988349;28;20513;-85
2022/11/01 06:27:50;;;;;;;8.33;8.13;;;16.10;1.00;;;;;;4991312;28;20474;-85
2022/11/01 06:30:18;;;;;;;8.97;8.43;;;16.00;99.90;;;;;;4995352;28;20483;-84
2022/11/01 06:32:48;;;;;;;7.90;7.80;;;16.00;1.00;;;;;;4991798;28;20460;-84
2022/11/01 06:35:16;;;;;;;8.57;8.37;;;16.00;99.90;;;;;;4998097;28;20827;-83
2022/11/01 06:37:45;;;;;;;8.40;8.10;;;16.10;1.00;;;;;;4993613;28;20479;-84
2022/11/01 06:40:13;;;;;;;8.90;8.70;;;16.00;99.90;;;;;;4997841;28;20456;-84
2022/11/01 06:42:42;;;;;;;9.43;9.03;;;16.00;99.90;;;;;;4996567;28;20813;-84
2022/11/01 06:45:13;;;;;;;8.77;8.50;;;15.90;1.00;;;;;;4997367;28;20482;-84
2022/11/01 06:47:47;;;;;;;9.10;8.90;;;15.80;99.90;;;;;;4993549;28;20485;-83
2022/11/01 06:50:15;;;;;;;9.23;8.83;;;15.80;1.00;;;;;;4990393;28;20487;-83
2022/11/01 06:52:44;;;;;;;9.73;9.33;;;15.80;99.90;;;;;;4991775;28;20458;-83
2022/11/01 06:55:12;;;;;;;8.97;8.77;;;15.80;1.00;;;;;;4992236;28;20458;-85
2022/11/01 06:57:40;;;;;;;9.40;9.10;;;15.80;1.00;;;;;;4993098;28;20474;-84
2022/11/01 07:00:10;;;;;;;9.40;9.20;;;15.80;1.00;;;;;;4993236;28;20469;-84
2022/11/01 07:02:38;;;;;;;9.20;9.00;;;15.90;13.50;;;;;;4989236;28;20449;-84
2022/11/01 07:05:08;;;;;;;9.10;8.90;;;16.00;1.00;;;;;;4987619;28;20460;-81
2022/11/01 07:07:36;;;;;;;8.90;8.70;;;15.90;1.00;;;;;;4986187;28;20568;-83
2022/11/01 07:10:05;;;;;;;9.23;9.00;;;15.90;99.90;;;;;;4986477;28;20962;-82
2022/11/01 07:12:33;;;;;;;9.20;8.97;;;15.90;1.00;;;;;;4988273;28;20483;-83
2022/11/01 07:15:01;;;;;;;9.57;9.23;;;16.00;99.90;;;;;;4996024;28;20455;-84
2022/11/01 07:17:29;;;;;;;9.33;9.10;;;15.90;1.00;;;;;;4996870;28;20553;-80
2022/11/01 07:19:58;;;;;;;9.63;9.30;;;16.00;99.90;;;;;;4996597;28;20474;-81
2022/11/01 07:22:28;;;;;;;10.03;9.83;;;15.90;99.90;;;;;;4995880;28;20578;-78
2022/11/01 07:24:56;;;;;;;9.63;9.30;;;15.90;1.00;;;;;;4997922;28;20463;-78
2022/11/01 07:27:26;;;;;;;11.30;10.80;;;15.90;1.00;;;;;;4994739;28;20965;-82
2022/11/01 07:29:54;;;;;;;9.80;9.60;;;16.00;99.90;;;;;;4990717;28;20463;-82
2022/11/01 07:32:22;;;;;;;10.03;9.80;;;16.00;1.00;;;;;;4997074;28;20500;-81
2022/11/01 07:34:50;;;;;;;9.20;9.00;;;16.00;35.00;;;;;;4997846;28;20442;-81
2022/11/01 07:37:18;;;;;;;9.63;9.27;;;16.00;99.90;;;;;;4998473;28;20479;-81
2022/11/01 07:39:47;;;;;;;9.67;9.37;;;16.00;99.90;;;;;;5000911;28;20476;-82
2022/11/01 07:42:15;;;;;;;9.70;9.50;;;16.00;99.90;;;;;;4999226;28;20469;-81
2022/11/01 07:44:44;;;;;;;10.00;9.80;;;16.00;11.50;;;;;;4999969;28;20477;-81
2022/11/01 07:47:12;;;;;;;10.07;9.77;;;16.10;1.00;;;;;;5000112;28;20463;-80
2022/11/01 07:49:41;;;;;;;11.80;11.20;;;16.10;41.60;;;;;;4997395;28;20484;-81
2022/11/01 07:52:09;;;;;;;9.63;9.43;;;16.10;99.90;;;;;;4998648;28;20503;-80
2022/11/01 07:54:37;;;;;;;10.00;9.80;;;16.20;99.90;;;;;;4998202;28;20512;-81
2022/11/01 07:57:06;;;;;;;9.53;9.33;;;16.20;1.00;;;;;;4997827;28;20467;-81
2022/11/01 07:59:35;;;;;;;9.80;9.60;;;16.30;99.90;;;;;;5000903;28;20563;-81
2022/11/01 08:02:04;;;;;;;10.20;9.83;;;16.40;1.00;;;;;;4996656;28;20882;-81
2022/11/01 08:04:35;;;;;;;9.77;9.57;;;16.40;99.90;;;;;;4991518;28;20905;-82
2022/11/01 08:07:03;;;;;;;10.93;10.53;;;16.40;99.90;;;;;;4996058;28;20498;-83
2022/11/01 08:09:31;;;;;;;9.80;9.60;;;16.50;99.90;;;;;;5001300;28;20506;-82
2022/11/01 08:11:59;;;;;;;9.80;9.57;;;16.50;1.00;;;;;;4994989;28;20521;-82
2022/11/01 08:14:29;;;;;;;10.13;9.83;;;16.50;1.00;;;;;;4997418;28;20983;-84
2022/11/01 08:17:00;;;;;;;9.83;9.63;;;16.50;1.00;;;;;;4996579;28;20452;-81
2022/11/01 08:19:28;;;;;;;10.33;10.10;;;16.50;1.00;;;;;;4997737;28;20489;-81
2022/11/01 08:21:58;;;;;;;10.00;9.70;;;16.50;1.00;;;;;;4998171;28;21028;-79
2022/11/01 08:24:26;;;;;;;10.10;9.90;;;16.50;1.00;;;;;;4997037;28;20921;-78
2022/11/01 08:26:54;;;;;;;11.17;10.87;;;16.70;99.90;;;;;;4994949;28;20484;-78
2022/11/01 08:29:23;;;;;;;10.40;10.20;;;16.70;99.90;;;;;;4997905;28;20535;-77
2022/11/01 08:31:52;;;;;;;9.83;9.63;;;16.70;1.00;;;;;;4998013;28;20535;-81
2022/11/01 08:34:20;;;;;;;10.00;9.70;;;16.70;99.90;;;;;;4991116;28;20461;-81
2022/11/01 08:36:48;;;;;;;10.20;9.90;;;16.80;99.90;;;;;;4993949;28;20456;-81
2022/11/01 08:39:17;;;;;;;9.30;9.10;;;16.80;1.00;;;;;;4997078;28;20568;-82
2022/11/01 08:41:49;;;;;;;10.20;9.90;;;16.90;1.00;;;;;;4998338;28;20470;-82
2022/11/01 08:44:19;;;;;;;9.60;9.40;;;16.90;1.00;;;;;;4994822;28;20460;-81
2022/11/01 08:46:47;;;;;;;9.77;9.47;;;16.90;1.00;;;;;;4998573;28;21106;-81
2022/11/01 08:49:16;;;;;;;9.30;9.10;;;16.90;1.00;;;;;;4995859;28;20529;-81
2022/11/01 08:51:44;;;;;;;9.07;8.97;;;16.90;1.00;;;;;;4998721;28;20465;-81
2022/11/01 08:54:12;;;;;;;9.20;9.00;;;16.90;1.00;;;;;;4996605;28;20456;-81
2022/11/01 08:56:40;;;;;;;9.43;9.23;;;16.90;1.00;;;;;;4997960;28;20876;-82
2022/11/01 08:59:09;;;;;;;9.23;9.03;;;16.90;99.90;;;;;;4993260;28;20588;-81
2022/11/01 09:01:37;;;;;;;8.70;8.50;;;17.00;99.90;;;;;;4991819;28;20984;-82
2022/11/01 09:04:06;;;;;;;8.87;8.67;;;17.00;99.90;;;;;;4994175;28;20475;-81
2022/11/01 09:06:35;;;;;;;8.60;8.40;;;17.00;99.90;;;;;;4994146;28;20465;-81
2022/11/01 09:09:04;;;;;;;8.83;8.73;;;16.90;99.90;;;;;;4988935;28;20476;-81
2022/11/01 09:11:32;;;;;;;8.93;8.73;;;16.90;99.90;;;;;;4999489;28;20500;-81
2022/11/01 09:14:00;;;;;;;12.53;11.93;;;16.90;99.90;;;;;;4998041;28;20459;-82
2022/11/01 09:16:28;;;;;;;8.50;8.40;;;16.90;99.90;;;;;;4994050;28;20550;-81
2022/11/01 09:19:00;;;;;;;9.20;9.00;;;17.00;99.90;;;;;;4991341;28;20565;-81
2022/11/01 09:21:29;;;;;;;8.83;8.73;;;17.00;99.90;;;;;;4994407;28;20559;-82
2022/11/01 09:24:02;;;;;;;8.80;8.60;;;17.00;99.90;;;;;;4998189;28;20445;-81
2022/11/01 09:26:30;;;;;;;8.90;8.70;;;17.00;99.90;;;;;;4998526;28;20522;-81
2022/11/01 09:28:58;;;;;;;9.00;8.80;;;17.10;99.90;;;;;;4998778;28;20542;-85
2022/11/01 09:31:27;;;;;;;9.40;9.20;;;17.30;99.90;;;;;;5000582;28;20461;-85
2022/11/01 09:33:56;;;;;;;9.53;9.33;;;17.50;99.90;;;;;;5002391;28;20457;-85
2022/11/01 09:36:26;;;;;;;10.10;9.90;;;17.70;99.90;;;;;;4999531;28;20441;-84
2022/11/01 09:38:54;;;;;;;11.33;10.93;;;18.70;99.90;;;;;;5009986;28;20479;-83
2022/11/01 09:41:32;;;;;;;11.00;10.80;;;20.60;1.00;;;;;;4996760;28;20505;-84
2022/11/01 09:44:03;;;;;;;10.40;10.20;;;22.20;99.90;;;;;;4998933;28;20447;-85
2022/11/01 09:46:37;;;;;;;9.80;9.60;;;23.50;99.90;;;;;;4993332;28;20457;-84
2022/11/01 09:49:08;;;;;;;8.87;8.70;;;24.60;99.90;;;;;;4996604;28;20474;-85
2022/11/01 09:51:36;;;;;;;8.67;8.47;;;25.40;99.90;;;;;;4995331;28;20442;-85
2022/11/01 09:54:07;;;;;;;8.27;8.07;;;26.00;99.90;;;;;;4992962;28;20500;-85
2022/11/01 09:56:42;;;;;;;8.10;7.90;;;26.20;99.90;;;;;;4993186;28;20461;-84
2022/11/01 09:59:23;;;;;;;7.80;7.60;;;26.40;99.90;;;;;;4990554;28;20559;-82
2022/11/01 10:02:01;;;;;;;7.70;7.50;;;27.10;99.90;;;;;;4988245;28;20501;-81
2022/11/01 10:05:06;;;;;;;8.93;8.63;;;27.10;99.90;;;;;;4987039;28;20461;-82
2022/11/01 10:07:45;;;;;;;6.53;6.33;;;26.20;99.90;;;;;;4995017;28;20461;-81
2022/11/01 10:10:28;;;;;;;6.57;6.40;;;24.70;99.90;;;;;;5001296;28;20457;-81
2022/11/01 10:13:16;;;;;;;6.60;6.50;;;23.70;99.90;;;;;;4996952;28;20476;-81
2022/11/01 10:15:55;;;;;;;6.30;6.20;;;23.00;99.90;;;;;;4996949;28;20465;-82
2022/11/01 10:18:28;;;;;;;6.53;6.30;;;22.50;99.90;;;;;;4995036;28;21000;-81
2022/11/01 10:20:58;;;;;;;6.67;6.50;;;22.80;99.90;;;;;;4994079;28;20564;-81
2022/11/01 10:23:38;;;;;;;6.73;6.53;;;23.10;99.90;;;;;;4994087;28;20450;-81
2022/11/01 10:26:07;;;;;;;6.47;6.17;;;22.80;99.90;;;;;;4993156;28;20472;-82
2022/11/01 10:28:46;;;;;;;6.20;6.10;;;22.30;99.90;;;;;;4994504;28;21121;-82
2022/11/01 10:31:19;;;;;;;5.80;5.40;;;22.80;99.90;;;;;;4996901;28;21087;-82
2022/11/01 10:33:54;;;;;;;5.40;5.30;;;22.90;99.90;;;;;;4996444;28;20458;-81
2022/11/01 10:36:28;;;;;;;5.70;5.50;;;22.20;99.90;;;;;;4995874;28;20540;-82
2022/11/01 10:39:06;;;;;;;5.23;5.00;;;21.50;99.90;;;;;;4993583;28;20483;-82
2022/11/01 10:41:54;;;;;;;5.00;4.90;;;20.70;99.90;;;;;;4992840;28;20807;-82
2022/11/01 10:44:29;;;;;;;4.60;4.40;;;20.90;99.90;;;;;;4996825;28;20457;-81
2022/11/01 10:47:00;;;;;;;4.90;4.80;;;20.80;99.90;;;;;;4999493;28;20576;-82
2022/11/01 10:49:31;;;;;;;9.60;4.87;;;20.50;99.90;;;;;;4994365;28;20479;-81
2022/11/01 10:52:25;;;;;;;4.60;4.50;;;20.40;99.90;;;;;;4999740;28;20458;-82
2022/11/01 10:54:55;;;;;;;4.60;4.50;;;20.30;99.90;;;;;;5002443;28;20498;-81
2022/11/01 10:57:31;;;;;;;4.87;4.67;;;20.00;99.90;;;;;;4997811;28;20489;-81
2022/11/01 11:00:05;;;;;;;5.20;5.00;;;19.90;99.90;;;;;;4998893;28;20994;-82
2022/11/01 11:02:36;;;;;;;5.00;4.80;;;20.00;99.90;;;;;;4997884;28;20511;-82
2022/11/01 11:05:04;;;;;;;5.00;4.80;;;20.00;99.90;;;;;;4998390;28;20501;-83
2022/11/01 11:07:34;;;;;;;4.30;4.10;;;20.10;99.90;;;;;;4996968;28;20461;-82
2022/11/01 11:10:03;;;;;;;4.33;4.13;;;20.40;99.90;;;;;;4994969;28;20957;-81
2022/11/01 11:12:33;;;;;;;4.50;4.40;;;20.50;99.90;;;;;;4986923;28;20945;-82
2022/11/01 11:15:15;;;;;;;4.80;4.60;;;20.40;99.90;;;;;;4993228;28;20462;-82
2022/11/01 11:17:46;;;;;;;4.33;4.23;;;20.50;99.90;;;;;;4993587;28;20952;-82
2022/11/01 11:20:21;;;;;;;4.53;4.43;;;20.50;99.90;;;;;;4997849;28;20476;-82
2022/11/01 11:22:49;;;;;;;4.33;4.23;;;20.40;99.90;;;;;;4993124;28;20488;-82
2022/11/01 11:25:20;;;;;;;4.17;4.07;;;20.40;99.90;;;;;;4983677;28;20466;-81
2022/11/01 11:27:51;;;;;;;4.20;4.00;;;20.10;99.90;;;;;;4990810;28;20509;-81
2022/11/01 11:30:32;;;;;;;4.00;3.80;;;20.00;99.90;;;;;;4992822;28;20450;-81
2022/11/01 11:33:02;;;;;;;5.20;4.40;;;19.60;99.90;;;;;;4993802;28;20576;-81
2022/11/01 11:35:32;;;;;;;3.93;3.83;;;19.60;99.90;;;;;;4998489;28;20901;-81
2022/11/01 11:38:02;;;;;;;3.93;3.83;;;19.50;99.90;;;;;;4994835;28;20903;-82
2022/11/01 11:40:42;;;;;;;4.33;4.13;;;19.50;99.90;;;;;;4997871;28;21008;-82
2022/11/01 11:43:24;;;;;;;3.70;3.60;;;19.30;99.90;;;;;;4997147;28;20968;-82
2022/11/01 11:46:05;;;;;;;4.60;4.40;;;19.30;99.90;;;;;;4995344;28;20445;-81
2022/11/01 11:48:33;;;;;;;4.53;4.37;;;19.20;99.90;;;;;;4994998;28;21000;-81
2022/11/01 11:51:04;;;;;;;4.00;3.90;;;19.20;99.90;;;;;;4997903;28;20934;-81
2022/11/01 11:53:33;;;;;;;4.37;4.07;;;19.10;99.90;;;;;;4995359;28;20463;-82
2022/11/01 11:56:05;;;;;;;4.23;4.13;;;19.00;99.90;;;;;;4996904;28;20461;-82
2022/11/01 11:58:37;;;;;;;4.17;4.07;;;18.80;99.90;;;;;;4994442;28;20484;-82
2022/11/01 12:01:09;;;;;;;6.27;5.77;;;18.80;99.90;;;;;;4994603;28;20533;-81
2022/11/01 12:03:48;;;;;;;7.67;7.03;;;18.90;99.90;;;;;;4994201;28;21445;-83
2022/11/01 12:06:19;;;;;;;5.03;4.80;;;18.90;99.90;;;;;;4996175;28;20536;-82
2022/11/01 12:08:49;;;;;;;4.60;4.30;;;18.90;99.90;;;;;;4995945;28;20584;-82
2022/11/01 12:11:18;;;;;;;6.40;5.87;;;18.80;99.90;;;;;;4999427;28;20488;-82
2022/11/01 12:13:59;;;;;;;4.80;4.60;;;18.90;99.90;;;;;;4996023;28;22650;-82
2022/11/01 12:16:29;;;;;;;4.43;4.13;;;18.90;99.90;;;;;;4995719;28;20511;-81
2022/11/01 12:18:59;;;;;;;4.80;4.60;;;18.90;99.90;;;;;;4998075;28;20561;-81
2022/11/01 12:21:29;;;;;;;4.67;4.37;;;18.80;99.90;;;;;;4992421;28;20564;-81
2022/11/01 12:24:02;;;;;;;4.70;4.50;;;18.90;99.90;;;;;;4993922;28;20486;-81
2022/11/01 12:26:33;;;;;;;4.23;4.03;;;19.20;99.90;;;;;;4997859;28;20616;-82
2022/11/01 12:29:10;;;;;;;3.90;3.80;;;19.20;99.90;;;;;;4998081;28;20509;-82
2022/11/01 12:31:42;;;;;;;4.00;3.90;;;19.40;99.90;;;;;;4996931;28;20458;-82
2022/11/01 12:34:19;;;;;;;4.53;4.33;;;19.60;99.90;;;;;;4994785;28;20527;-82
2022/11/01 12:36:53;;;;;;;4.23;4.03;;;19.60;99.90;;;;;;4996502;28;20513;-82
2022/11/01 12:39:39;;;;;;;4.10;4.00;;;19.70;99.90;;;;;;4993793;28;20473;-82
2022/11/01 12:42:12;;;;;;;5.23;4.83;;;19.60;99.90;;;;;;4990145;28;20605;-82
2022/11/01 12:44:42;;;;;;;4.80;4.50;;;19.80;99.90;;;;;;4996508;28;20468;-82
2022/11/01 12:47:18;;;;;;;5.57;4.57;;;19.90;99.90;;;;;;4996455;28;20861;-81
2022/11/01 12:49:53;;;;;;;4.87;4.67;;;20.00;99.90;;;;;;4997762;28;20477;-80
2022/11/01 12:52:27;;;;;;;4.20;4.07;;;20.10;99.90;;;;;;5000258;28;20477;-81
2022/11/01 12:55:04;;;;;;;4.80;4.50;;;20.10;99.90;;;;;;4993477;28;20469;-81
2022/11/01 12:57:33;;;;;;;5.00;4.80;;;20.20;99.90;;;;;;4993344;28;21048;-80
2022/11/01 13:00:03;;;;;;;4.77;4.57;;;20.20;99.90;;;;;;4997465;28;20452;-80
2022/11/01 13:02:54;;;;;;;5.10;4.90;;;20.00;99.90;;;;;;4996217;28;20534;-81
2022/11/01 13:05:26;;;;;;;4.10;4.00;;;20.00;99.90;;;;;;4999503;28;20457;-81
2022/11/01 13:08:04;;;;;;;4.60;4.30;;;20.00;99.90;;;;;;5000544;28;20478;-80
2022/11/01 13:10:36;;;;;;;4.30;4.10;;;20.20;99.90;;;;;;4993024;28;20449;-81
2022/11/01 13:13:16;;;;;;;4.67;4.30;;;20.30;99.90;;;;;;4993691;28;20459;-81
2022/11/01 13:15:58;;;;;;;7.00;4.30;;;20.20;99.90;;;;;;4993085;28;20492;-81
2022/11/01 13:18:38;;;;;;;4.50;4.20;;;20.00;99.90;;;;;;4985409;28;20539;-84
2022/11/01 13:21:13;;;;;;;4.50;4.28;;;20.00;99.90;;;;;;4984842;28;20450;-78
2022/11/01 13:23:47;;;;;;;4.30;4.10;;;19.70;99.90;;;;;;5016228;28;20739;-79